sensor_id;sensor_type;location;lat;lon;timestamp;P1;durP1;ratioP1;P2;durP2;ratioP2
53287;SDS011;39172;45.550;12.072;2022-10-23T00:03:11;2.22;;;1.98;;
53287;SDS011;39172;45.550;12.072;2022-10-23T00:09:13;2.80;;;2.08;;
53287;SDS011;39172;45.550;12.072;2022-10-23T00:15:16;3.05;;;2.20;;
53287;SDS011;39172;45.550;12.072;2022-10-23T00:21:18;2.03;;;1.50;;
53287;SDS011;39172;45.550;12.072;2022-10-23T00:27:19;1.40;;;1.27;;
53287;SDS011;39172;45.550;12.072;2022-10-23T00:33:20;2.47;;;1.75;;
53287;SDS011;39172;45.550;12.072;2022-10-23T00:39:21;1.67;;;1.27;;
53287;SDS011;39172;45.550;12.072;2022-10-23T00:45:24;2.22;;;1.80;;
53287;SDS011;39172;45.550;12.072;2022-10-23T00:51:27;2.25;;;1.70;;
53287;SDS011;39172;45.550;12.072;2022-10-23T00:57:29;1.73;;;1.02;;
53287;SDS011;39172;45.550;12.072;2022-10-23T01:03:31;1.40;;;1.10;;
53287;SDS011;39172;45.550;12.072;2022-10-23T01:15:42;1.45;;;1.17;;
53287;SDS011;39172;45.550;12.072;2022-10-23T01:27:54;2.15;;;1.67;;
53287;SDS011;39172;45.550;12.072;2022-10-23T01:34:00;2.33;;;1.67;;
53287;SDS011;39172;45.550;12.072;2022-10-23T01:40:04;1.33;;;1.10;;
53287;SDS011;39172;45.550;12.072;2022-10-23T01:46:07;1.63;;;1.30;;
53287;SDS011;39172;45.550;12.072;2022-10-23T01:52:13;2.40;;;1.90;;
53287;SDS011;39172;45.550;12.072;2022-10-23T01:58:16;1.33;;;0.80;;
53287;SDS011;39172;45.550;12.072;2022-10-23T02:04:23;1.10;;;0.77;;
53287;SDS011;39172;45.550;12.072;2022-10-23T02:10:29;0.90;;;0.70;;
53287;SDS011;39172;45.550;12.072;2022-10-23T02:16:40;0.93;;;0.70;;
53287;SDS011;39172;45.550;12.072;2022-10-23T02:22:44;1.15;;;1.02;;
53287;SDS011;39172;45.550;12.072;2022-10-23T02:28:49;1.00;;;0.80;;
53287;SDS011;39172;45.550;12.072;2022-10-23T02:34:53;0.82;;;0.68;;
53287;SDS011;39172;45.550;12.072;2022-10-23T02:40:54;1.15;;;0.80;;
53287;SDS011;39172;45.550;12.072;2022-10-23T02:59:06;1.15;;;0.70;;
53287;SDS011;39172;45.550;12.072;2022-10-23T03:05:12;0.80;;;0.60;;
53287;SDS011;39172;45.550;12.072;2022-10-23T03:11:14;0.80;;;0.70;;
53287;SDS011;39172;45.550;12.072;2022-10-23T03:17:15;0.80;;;0.60;;
53287;SDS011;39172;45.550;12.072;2022-10-23T03:23:20;1.10;;;0.60;;
53287;SDS011;39172;45.550;12.072;2022-10-23T03:29:22;1.05;;;0.80;;
53287;SDS011;39172;45.550;12.072;2022-10-23T03:35:24;0.80;;;0.70;;
53287;SDS011;39172;45.550;12.072;2022-10-23T03:41:24;0.80;;;0.52;;
53287;SDS011;39172;45.550;12.072;2022-10-23T03:47:26;1.77;;;0.90;;
53287;SDS011;39172;45.550;12.072;2022-10-23T03:53:27;0.80;;;0.75;;
53287;SDS011;39172;45.550;12.072;2022-10-23T03:59:28;0.80;;;0.50;;
53287;SDS011;39172;45.550;12.072;2022-10-23T04:05:29;0.75;;;0.60;;
53287;SDS011;39172;45.550;12.072;2022-10-23T04:11:32;0.65;;;0.50;;
53287;SDS011;39172;45.550;12.072;2022-10-23T04:17:33;1.50;;;0.57;;
53287;SDS011;39172;45.550;12.072;2022-10-23T04:23:34;0.80;;;0.60;;
53287;SDS011;39172;45.550;12.072;2022-10-23T04:29:35;0.63;;;0.60;;
53287;SDS011;39172;45.550;12.072;2022-10-23T04:35:36;0.68;;;0.65;;
53287;SDS011;39172;45.550;12.072;2022-10-23T04:41:37;0.70;;;0.63;;
53287;SDS011;39172;45.550;12.072;2022-10-23T04:47:39;1.05;;;0.73;;
53287;SDS011;39172;45.550;12.072;2022-10-23T04:53:41;2.10;;;0.80;;
53287;SDS011;39172;45.550;12.072;2022-10-23T05:00:06;0.90;;;0.73;;
53287;SDS011;39172;45.550;12.072;2022-10-23T05:06:24;0.90;;;0.80;;
53287;SDS011;39172;45.550;12.072;2022-10-23T05:12:45;0.77;;;0.70;;
53287;SDS011;39172;45.550;12.072;2022-10-23T05:18:46;1.17;;;0.80;;
53287;SDS011;39172;45.550;12.072;2022-10-23T05:24:48;1.10;;;0.70;;
53287;SDS011;39172;45.550;12.072;2022-10-23T05:30:51;0.80;;;0.70;;
53287;SDS011;39172;45.550;12.072;2022-10-23T05:36:53;1.17;;;0.50;;
53287;SDS011;39172;45.550;12.072;2022-10-23T05:42:57;0.75;;;0.50;;
53287;SDS011;39172;45.550;12.072;2022-10-23T05:49:22;0.75;;;0.50;;
53287;SDS011;39172;45.550;12.072;2022-10-23T05:55:34;0.73;;;0.60;;
53287;SDS011;39172;45.550;12.072;2022-10-23T06:01:50;0.70;;;0.50;;
53287;SDS011;39172;45.550;12.072;2022-10-23T06:08:00;2.17;;;0.90;;
53287;SDS011;39172;45.550;12.072;2022-10-23T06:14:01;1.33;;;1.00;;
53287;SDS011;39172;45.550;12.072;2022-10-23T06:20:03;1.65;;;1.00;;
53287;SDS011;39172;45.550;12.072;2022-10-23T06:26:10;1.52;;;0.80;;
53287;SDS011;39172;45.550;12.072;2022-10-23T06:32:23;1.10;;;0.80;;
53287;SDS011;39172;45.550;12.072;2022-10-23T06:38:39;1.33;;;0.85;;
53287;SDS011;39172;45.550;12.072;2022-10-23T06:44:40;1.20;;;1.00;;
53287;SDS011;39172;45.550;12.072;2022-10-23T06:50:45;1.52;;;1.10;;
53287;SDS011;39172;45.550;12.072;2022-10-23T06:56:49;1.10;;;0.90;;
53287;SDS011;39172;45.550;12.072;2022-10-23T07:02:56;1.98;;;1.10;;
53287;SDS011;39172;45.550;12.072;2022-10-23T07:08:58;1.27;;;1.08;;
53287;SDS011;39172;45.550;12.072;2022-10-23T07:15:28;1.60;;;1.20;;
53287;SDS011;39172;45.550;12.072;2022-10-23T07:21:30;1.30;;;0.93;;
53287;SDS011;39172;45.550;12.072;2022-10-23T07:27:46;1.58;;;1.10;;
53287;SDS011;39172;45.550;12.072;2022-10-23T07:33:48;1.70;;;1.30;;
53287;SDS011;39172;45.550;12.072;2022-10-23T07:39:52;1.30;;;0.90;;
53287;SDS011;39172;45.550;12.072;2022-10-23T07:45:53;1.90;;;1.50;;
53287;SDS011;39172;45.550;12.072;2022-10-23T07:52:15;1.65;;;1.10;;
53287;SDS011;39172;45.550;12.072;2022-10-23T07:58:34;2.47;;;1.20;;
53287;SDS011;39172;45.550;12.072;2022-10-23T08:04:47;1.40;;;0.98;;
53287;SDS011;39172;45.550;12.072;2022-10-23T08:10:57;1.40;;;1.20;;
53287;SDS011;39172;45.550;12.072;2022-10-23T08:17:04;1.20;;;1.00;;
53287;SDS011;39172;45.550;12.072;2022-10-23T08:23:35;1.30;;;0.82;;
53287;SDS011;39172;45.550;12.072;2022-10-23T08:29:36;1.10;;;1.00;;
53287;SDS011;39172;45.550;12.072;2022-10-23T08:35:38;5.53;;;1.10;;
53287;SDS011;39172;45.550;12.072;2022-10-23T08:41:41;1.27;;;0.98;;
53287;SDS011;39172;45.550;12.072;2022-10-23T08:47:46;1.58;;;0.95;;
53287;SDS011;39172;45.550;12.072;2022-10-23T08:54:09;1.00;;;0.77;;
53287;SDS011;39172;45.550;12.072;2022-10-23T09:00:13;1.13;;;0.80;;
53287;SDS011;39172;45.550;12.072;2022-10-23T09:06:33;1.08;;;0.88;;
53287;SDS011;39172;45.550;12.072;2022-10-23T09:12:34;1.75;;;0.80;;
53287;SDS011;39172;45.550;12.072;2022-10-23T09:18:36;1.20;;;0.90;;
53287;SDS011;39172;45.550;12.072;2022-10-23T09:24:40;1.30;;;0.82;;
53287;SDS011;39172;45.550;12.072;2022-10-23T09:30:41;1.33;;;0.85;;
53287;SDS011;39172;45.550;12.072;2022-10-23T09:36:47;1.70;;;1.02;;
53287;SDS011;39172;45.550;12.072;2022-10-23T09:42:49;1.20;;;0.98;;
53287;SDS011;39172;45.550;12.072;2022-10-23T09:48:56;1.17;;;0.90;;
53287;SDS011;39172;45.550;12.072;2022-10-23T09:54:58;1.88;;;1.17;;
53287;SDS011;39172;45.550;12.072;2022-10-23T10:01:00;1.45;;;1.00;;
53287;SDS011;39172;45.550;12.072;2022-10-23T10:07:21;1.00;;;0.90;;
53287;SDS011;39172;45.550;12.072;2022-10-23T10:25:33;2.65;;;1.02;;
53287;SDS011;39172;45.550;12.072;2022-10-23T10:37:48;1.25;;;0.90;;
53287;SDS011;39172;45.550;12.072;2022-10-23T10:50:16;1.13;;;0.70;;
53287;SDS011;39172;45.550;12.072;2022-10-23T10:56:30;1.35;;;0.70;;
53287;SDS011;39172;45.550;12.072;2022-10-23T11:02:34;1.40;;;0.80;;
53287;SDS011;39172;45.550;12.072;2022-10-23T11:08:39;1.10;;;0.90;;
53287;SDS011;39172;45.550;12.072;2022-10-23T11:14:40;1.73;;;1.30;;
53287;SDS011;39172;45.550;12.072;2022-10-23T11:39:04;2.13;;;1.30;;
53287;SDS011;39172;45.550;12.072;2022-10-23T11:57:27;1.50;;;0.98;;
53287;SDS011;39172;45.550;12.072;2022-10-23T12:03:35;2.03;;;1.08;;
53287;SDS011;39172;45.550;12.072;2022-10-23T12:09:40;1.88;;;1.10;;
53287;SDS011;39172;45.550;12.072;2022-10-23T12:15:42;1.80;;;1.10;;
53287;SDS011;39172;45.550;12.072;2022-10-23T12:21:59;1.65;;;1.30;;
53287;SDS011;39172;45.550;12.072;2022-10-23T12:34:12;2.15;;;1.13;;
53287;SDS011;39172;45.550;12.072;2022-10-23T12:40:15;1.95;;;1.40;;
53287;SDS011;39172;45.550;12.072;2022-10-23T12:52:17;1.48;;;1.15;;
53287;SDS011;39172;45.550;12.072;2022-10-23T12:58:20;3.63;;;1.98;;
53287;SDS011;39172;45.550;12.072;2022-10-23T13:04:27;2.40;;;1.48;;
53287;SDS011;39172;45.550;12.072;2022-10-23T13:10:28;2.70;;;1.65;;
53287;SDS011;39172;45.550;12.072;2022-10-23T13:16:36;2.42;;;1.48;;
53287;SDS011;39172;45.550;12.072;2022-10-23T13:22:38;2.78;;;1.70;;
53287;SDS011;39172;45.550;12.072;2022-10-23T13:28:40;2.78;;;2.00;;
53287;SDS011;39172;45.550;12.072;2022-10-23T13:34:49;3.58;;;2.95;;
53287;SDS011;39172;45.550;12.072;2022-10-23T13:40:54;3.88;;;2.17;;
53287;SDS011;39172;45.550;12.072;2022-10-23T13:46:55;4.32;;;1.90;;
53287;SDS011;39172;45.550;12.072;2022-10-23T13:52:56;2.30;;;1.65;;
53287;SDS011;39172;45.550;12.072;2022-10-23T13:58:57;3.03;;;1.88;;
53287;SDS011;39172;45.550;12.072;2022-10-23T14:04:58;2.60;;;1.90;;
53287;SDS011;39172;45.550;12.072;2022-10-23T14:10:59;3.15;;;1.90;;
53287;SDS011;39172;45.550;12.072;2022-10-23T14:17:00;1.90;;;1.40;;
53287;SDS011;39172;45.550;12.072;2022-10-23T14:23:01;2.85;;;1.70;;
53287;SDS011;39172;45.550;12.072;2022-10-23T14:29:02;1.92;;;1.20;;
53287;SDS011;39172;45.550;12.072;2022-10-23T14:35:03;1.10;;;0.90;;
53287;SDS011;39172;45.550;12.072;2022-10-23T14:41:14;1.88;;;1.50;;
53287;SDS011;39172;45.550;12.072;2022-10-23T14:47:15;2.10;;;1.40;;
53287;SDS011;39172;45.550;12.072;2022-10-23T14:53:16;1.50;;;1.05;;
53287;SDS011;39172;45.550;12.072;2022-10-23T14:59:17;1.25;;;1.00;;
53287;SDS011;39172;45.550;12.072;2022-10-23T15:05:18;1.92;;;1.50;;
53287;SDS011;39172;45.550;12.072;2022-10-23T15:11:19;2.28;;;1.80;;
53287;SDS011;39172;45.550;12.072;2022-10-23T15:17:20;2.75;;;1.77;;
53287;SDS011;39172;45.550;12.072;2022-10-23T15:23:21;1.92;;;1.58;;
53287;SDS011;39172;45.550;12.072;2022-10-23T15:29:22;2.58;;;1.63;;
53287;SDS011;39172;45.550;12.072;2022-10-23T15:35:23;1.70;;;1.30;;
53287;SDS011;39172;45.550;12.072;2022-10-23T15:41:31;2.22;;;1.63;;
53287;SDS011;39172;45.550;12.072;2022-10-23T15:47:32;2.28;;;1.45;;
53287;SDS011;39172;45.550;12.072;2022-10-23T15:53:33;2.13;;;1.33;;
53287;SDS011;39172;45.550;12.072;2022-10-23T15:59:33;2.25;;;1.70;;
53287;SDS011;39172;45.550;12.072;2022-10-23T16:05:35;2.30;;;1.23;;
53287;SDS011;39172;45.550;12.072;2022-10-23T16:11:36;1.50;;;1.20;;
53287;SDS011;39172;45.550;12.072;2022-10-23T16:17:37;1.23;;;1.10;;
53287;SDS011;39172;45.550;12.072;2022-10-23T16:23:38;1.40;;;1.10;;
53287;SDS011;39172;45.550;12.072;2022-10-23T16:29:39;1.38;;;1.13;;
53287;SDS011;39172;45.550;12.072;2022-10-23T16:35:40;1.83;;;1.40;;
53287;SDS011;39172;45.550;12.072;2022-10-23T16:41:49;2.03;;;1.17;;
53287;SDS011;39172;45.550;12.072;2022-10-23T16:47:52;0.90;;;0.70;;
53287;SDS011;39172;45.550;12.072;2022-10-23T16:53:53;1.02;;;0.70;;
53287;SDS011;39172;45.550;12.072;2022-10-23T16:59:54;3.13;;;1.70;;
53287;SDS011;39172;45.550;12.072;2022-10-23T17:06:02;1.08;;;0.80;;
53287;SDS011;39172;45.550;12.072;2022-10-23T17:12:04;1.73;;;1.30;;
53287;SDS011;39172;45.550;12.072;2022-10-23T17:18:05;1.67;;;1.38;;
53287;SDS011;39172;45.550;12.072;2022-10-23T17:24:06;2.60;;;1.95;;
53287;SDS011;39172;45.550;12.072;2022-10-23T17:30:08;2.78;;;2.10;;
53287;SDS011;39172;45.550;12.072;2022-10-23T17:36:09;2.38;;;1.90;;
53287;SDS011;39172;45.550;12.072;2022-10-23T17:42:10;3.08;;;1.83;;
53287;SDS011;39172;45.550;12.072;2022-10-23T17:48:12;1.80;;;1.50;;
53287;SDS011;39172;45.550;12.072;2022-10-23T17:54:13;2.70;;;2.00;;
53287;SDS011;39172;45.550;12.072;2022-10-23T18:00:14;3.60;;;2.65;;
53287;SDS011;39172;45.550;12.072;2022-10-23T18:06:26;3.00;;;2.50;;
53287;SDS011;39172;45.550;12.072;2022-10-23T18:12:27;4.60;;;2.65;;
53287;SDS011;39172;45.550;12.072;2022-10-23T18:18:29;4.20;;;2.83;;
53287;SDS011;39172;45.550;12.072;2022-10-23T18:24:30;2.83;;;2.20;;
53287;SDS011;39172;45.550;12.072;2022-10-23T18:30:31;2.75;;;2.30;;
53287;SDS011;39172;45.550;12.072;2022-10-23T18:36:36;2.40;;;1.90;;
53287;SDS011;39172;45.550;12.072;2022-10-23T18:42:37;2.55;;;1.92;;
53287;SDS011;39172;45.550;12.072;2022-10-23T18:48:39;2.08;;;1.60;;
53287;SDS011;39172;45.550;12.072;2022-10-23T18:54:39;3.08;;;1.92;;
53287;SDS011;39172;45.550;12.072;2022-10-23T19:00:41;3.65;;;2.65;;
53287;SDS011;39172;45.550;12.072;2022-10-23T19:06:42;2.45;;;2.00;;
53287;SDS011;39172;45.550;12.072;2022-10-23T19:12:43;3.85;;;2.90;;
53287;SDS011;39172;45.550;12.072;2022-10-23T19:18:46;3.78;;;3.03;;
53287;SDS011;39172;45.550;12.072;2022-10-23T19:24:56;3.88;;;3.22;;
53287;SDS011;39172;45.550;12.072;2022-10-23T19:30:58;2.95;;;2.38;;
53287;SDS011;39172;45.550;12.072;2022-10-23T19:36:59;4.07;;;3.20;;
53287;SDS011;39172;45.550;12.072;2022-10-23T19:43:00;4.75;;;3.55;;
53287;SDS011;39172;45.550;12.072;2022-10-23T19:49:01;5.03;;;3.70;;
53287;SDS011;39172;45.550;12.072;2022-10-23T19:55:03;3.92;;;3.20;;
53287;SDS011;39172;45.550;12.072;2022-10-23T20:01:05;4.00;;;3.28;;
53287;SDS011;39172;45.550;12.072;2022-10-23T20:07:07;3.63;;;2.72;;
53287;SDS011;39172;45.550;12.072;2022-10-23T20:13:07;5.32;;;4.20;;
53287;SDS011;39172;45.550;12.072;2022-10-23T20:19:09;3.35;;;2.85;;
53287;SDS011;39172;45.550;12.072;2022-10-23T20:25:11;4.40;;;3.70;;
53287;SDS011;39172;45.550;12.072;2022-10-23T20:31:14;4.30;;;3.50;;
53287;SDS011;39172;45.550;12.072;2022-10-23T20:37:16;4.93;;;3.78;;
53287;SDS011;39172;45.550;12.072;2022-10-23T20:43:16;5.90;;;4.60;;
53287;SDS011;39172;45.550;12.072;2022-10-23T20:49:17;5.22;;;3.92;;
53287;SDS011;39172;45.550;12.072;2022-10-23T20:55:18;3.88;;;3.20;;
53287;SDS011;39172;45.550;12.072;2022-10-23T21:01:19;6.38;;;4.65;;
53287;SDS011;39172;45.550;12.072;2022-10-23T21:07:20;3.45;;;2.80;;
53287;SDS011;39172;45.550;12.072;2022-10-23T21:13:21;3.88;;;2.97;;
53287;SDS011;39172;45.550;12.072;2022-10-23T21:19:22;5.20;;;4.10;;
53287;SDS011;39172;45.550;12.072;2022-10-23T21:25:23;5.65;;;4.70;;
53287;SDS011;39172;45.550;12.072;2022-10-23T21:31:23;6.47;;;4.68;;
53287;SDS011;39172;45.550;12.072;2022-10-23T21:37:25;4.82;;;3.50;;
53287;SDS011;39172;45.550;12.072;2022-10-23T21:43:26;4.50;;;3.47;;
53287;SDS011;39172;45.550;12.072;2022-10-23T21:49:27;5.70;;;4.35;;
53287;SDS011;39172;45.550;12.072;2022-10-23T21:55:28;5.07;;;3.72;;
53287;SDS011;39172;45.550;12.072;2022-10-23T22:01:30;4.75;;;4.05;;
53287;SDS011;39172;45.550;12.072;2022-10-23T22:07:31;7.07;;;4.30;;
53287;SDS011;39172;45.550;12.072;2022-10-23T22:13:32;5.63;;;4.10;;
53287;SDS011;39172;45.550;12.072;2022-10-23T22:19:32;4.03;;;2.50;;
53287;SDS011;39172;45.550;12.072;2022-10-23T22:25:36;2.97;;;2.55;;
53287;SDS011;39172;45.550;12.072;2022-10-23T22:31:37;4.68;;;3.28;;
53287;SDS011;39172;45.550;12.072;2022-10-23T22:37:38;6.32;;;4.53;;
53287;SDS011;39172;45.550;12.072;2022-10-23T22:43:39;6.50;;;4.63;;
53287;SDS011;39172;45.550;12.072;2022-10-23T22:49:40;7.00;;;5.47;;
53287;SDS011;39172;45.550;12.072;2022-10-23T22:55:41;6.78;;;4.10;;
53287;SDS011;39172;45.550;12.072;2022-10-23T23:01:43;5.22;;;4.05;;
53287;SDS011;39172;45.550;12.072;2022-10-23T23:07:44;5.32;;;4.22;;
53287;SDS011;39172;45.550;12.072;2022-10-23T23:13:45;4.40;;;3.40;;
53287;SDS011;39172;45.550;12.072;2022-10-23T23:19:47;3.67;;;2.70;;
53287;SDS011;39172;45.550;12.072;2022-10-23T23:25:48;3.40;;;2.65;;
53287;SDS011;39172;45.550;12.072;2022-10-23T23:31:49;2.45;;;2.20;;
53287;SDS011;39172;45.550;12.072;2022-10-23T23:37:50;3.47;;;2.65;;
53287;SDS011;39172;45.550;12.072;2022-10-23T23:43:55;4.45;;;3.50;;
53287;SDS011;39172;45.550;12.072;2022-10-23T23:49:56;5.65;;;4.38;;
53287;SDS011;39172;45.550;12.072;2022-10-23T23:55:57;5.28;;;4.15;;
